Terminal Aerodrome Forecast
Issued by NWS

Home | Current Version | Previous Version | Graphics & Text | Print | Product List | Glossary On
Versions: 1 2 3 4 5 6 7 8 9 10 11 12 13 14 15 16
000
FTUS43 KICT 221125
TAFSLN
TAF
KSLN 221125Z 2212/2312 14009KT P6SM VCSH OVC060
     FM221500 15017KT P6SM OVC050
     FM221700 16017G26KT P6SM VCSH OVC035
     FM222000 17022G30KT P6SM OVC045=

USA.gov is the U.S. government's official web portal to all federal, state and local government web resources and services.